Time;durP1;ratioP1;P1;durP2;ratioP2;P2;SDS_P1;SDS_P2;PMS_P1;PMS_P2;Temp;Humidity;BMP_temperature;BMP_pressure;BME280_temperature;BME280_humidity;BME280_pressure;Samples;Min_cycle;Max_cycle;Signal;HPM_P1;HPM_P2
2022/05/01 00:01:59;;;;;;;11.85;6.75;;;8.40;99.90;;;;;;5034125;28;20076;-79
2022/05/01 00:04:25;;;;;;;11.45;5.93;;;8.40;99.90;;;;;;5034345;28;20048;-76
2022/05/01 00:06:51;;;;;;;13.50;7.05;;;8.40;99.90;;;;;;5034007;28;20419;-76
2022/05/01 00:09:16;;;;;;;11.73;6.40;;;8.40;99.90;;;;;;5033872;28;20041;-76
2022/05/01 00:11:42;;;;;;;13.38;6.50;;;8.30;99.90;;;;;;5034233;28;20072;-76
2022/05/01 00:14:08;;;;;;;15.02;6.88;;;8.30;99.90;;;;;;5033837;28;20041;-77
2022/05/01 00:16:33;;;;;;;10.57;6.70;;;8.30;99.90;;;;;;5033844;28;20041;-76
2022/05/01 00:18:59;;;;;;;12.60;6.50;;;8.30;99.90;;;;;;5033769;28;20102;-76
2022/05/01 00:21:25;;;;;;;12.82;6.28;;;8.30;99.90;;;;;;5017548;28;20037;-76
2022/05/01 00:23:50;;;;;;;12.98;6.85;;;8.30;99.90;;;;;;5017364;28;20495;-76
2022/05/01 00:26:16;;;;;;;13.55;7.57;;;8.30;99.90;;;;;;5033641;28;20048;-78
2022/05/01 00:28:42;;;;;;;12.98;7.72;;;8.30;99.90;;;;;;5033909;28;20044;-76
2022/05/01 00:31:08;;;;;;;12.65;6.80;;;8.20;99.90;;;;;;5051417;28;20128;-76
2022/05/01 00:36:25;;;;;;;17.20;8.85;;;8.20;99.90;;;;;;5033556;28;20049;-77
2022/05/01 00:38:51;;;;;;;;;;;8.20;99.90;;;;;;5034138;28;20036;-76
2022/05/01 00:41:17;;;;;;;13.48;6.88;;;8.30;99.90;;;;;;5033475;28;19917;-76
2022/05/01 00:44:21;;;;;;;12.20;6.68;;;8.20;99.90;;;;;;5032671;28;20132;-76
2022/05/01 00:46:49;;;;;;;11.20;6.80;;;8.20;99.90;;;;;;4935216;29;20043;-77
2022/05/01 00:49:23;;;;;;;12.75;7.03;;;8.20;99.90;;;;;;5019791;28;20053;-76
2022/05/01 00:52:09;;;;;;;14.88;7.47;;;8.20;99.90;;;;;;5033562;28;20119;-76
2022/05/01 00:54:40;;;;;;;15.18;7.47;;;8.20;99.90;;;;;;5033511;28;20041;-76
2022/05/01 00:57:06;;;;;;;10.10;6.30;;;8.20;99.90;;;;;;5033616;28;20435;-76
2022/05/01 00:59:35;;;;;;;14.13;6.40;;;8.20;99.90;;;;;;5033206;28;20449;-76
2022/05/01 01:02:01;;;;;;;14.93;7.30;;;8.20;99.90;;;;;;5033414;28;20041;-76
2022/05/01 01:04:26;;;;;;;10.63;6.85;;;8.20;99.90;;;;;;5033522;28;20476;-76
2022/05/01 01:06:52;;;;;;;11.15;6.82;;;8.20;99.90;;;;;;5016935;28;20120;-76
2022/05/01 01:09:18;;;;;;;10.95;6.35;;;8.20;99.90;;;;;;5033347;28;20069;-76
2022/05/01 01:11:44;;;;;;;16.13;8.00;;;8.20;99.90;;;;;;5033231;28;20044;-76
2022/05/01 01:14:10;;;;;;;10.75;6.32;;;8.20;99.90;;;;;;5033332;28;20116;-77
2022/05/01 01:16:37;;;;;;;12.55;6.95;;;8.10;99.90;;;;;;5033393;28;20509;-76
2022/05/01 01:19:04;;;;;;;13.35;7.85;;;8.10;99.90;;;;;;5050970;28;20427;-76
2022/05/01 01:21:30;;;;;;;14.32;7.30;;;8.00;99.90;;;;;;5033195;28;20045;-76
2022/05/01 01:23:57;;;;;;;14.73;6.68;;;8.00;99.90;;;;;;5033337;28;20051;-77
2022/05/01 01:26:24;;;;;;;12.45;7.75;;;8.00;99.90;;;;;;5033318;28;20047;-76
2022/05/01 01:28:50;;;;;;;12.52;7.40;;;8.00;99.90;;;;;;5033447;28;20045;-76
2022/05/01 01:34:05;;;;;;;19.13;7.63;;;8.00;99.90;;;;;;5033032;28;20064;-79
2022/05/01 01:36:32;;;;;;;13.80;7.10;;;8.00;99.90;;;;;;5033183;28;20072;-76
2022/05/01 01:38:59;;;;;;;18.08;7.95;;;8.00;99.90;;;;;;5033394;28;20498;-78
2022/05/01 01:41:29;;;;;;;12.27;7.50;;;8.00;99.90;;;;;;5033005;28;20110;-77
2022/05/01 01:43:56;;;;;;;13.23;7.57;;;8.00;99.90;;;;;;5033268;28;20048;-76
2022/05/01 01:46:22;;;;;;;14.35;7.82;;;8.00;99.90;;;;;;5033457;28;20495;-76
2022/05/01 01:48:48;;;;;;;15.15;7.88;;;8.00;99.90;;;;;;5033309;28;20056;-76
2022/05/01 01:51:14;;;;;;;14.07;7.57;;;8.00;99.90;;;;;;5033443;28;20045;-76
2022/05/01 01:53:40;;;;;;;15.18;7.18;;;8.00;99.90;;;;;;5033011;28;20041;-76
2022/05/01 01:56:10;;;;;;;14.90;7.72;;;8.00;99.90;;;;;;5036592;28;20041;-76
2022/05/01 01:58:37;;;;;;;12.38;7.85;;;8.00;99.90;;;;;;5054397;28;20498;-76
2022/05/01 02:01:04;;;;;;;15.55;8.30;;;7.90;99.90;;;;;;5036316;28;20041;-77
2022/05/01 02:03:30;;;;;;;14.80;8.05;;;7.90;99.90;;;;;;5036668;28;20052;-76
2022/05/01 02:05:55;;;;;;;16.80;8.27;;;7.90;99.90;;;;;;5054274;28;20088;-76
2022/05/01 02:08:21;;;;;;;16.17;8.23;;;7.90;99.90;;;;;;5036309;28;20407;-76
2022/05/01 02:10:47;;;;;;;13.23;7.88;;;7.90;99.90;;;;;;5036381;28;20029;-77
2022/05/01 02:13:13;;;;;;;13.40;8.90;;;7.90;99.90;;;;;;5019654;28;20091;-76
2022/05/01 02:15:39;;;;;;;15.93;9.13;;;7.90;99.90;;;;;;5036158;28;20041;-76
2022/05/01 02:18:06;;;;;;;16.58;8.43;;;7.80;99.90;;;;;;5036018;28;20045;-76
2022/05/01 02:21:34;;;;;;;16.40;8.43;;;7.80;99.90;;;;;;5035699;28;20079;-77
2022/05/01 02:23:20;;;;;;;16.10;8.40;;;7.80;99.90;;;;;;5035897;28;20080;-76
2022/05/01 02:25:46;;;;;;;20.17;10.07;;;7.80;99.90;;;;;;5036232;28;20388;-76
2022/05/01 02:28:12;;;;;;;14.35;8.52;;;7.80;99.90;;;;;;5035916;28;20045;-76
2022/05/01 02:30:38;;;;;;;14.07;8.60;;;7.70;99.90;;;;;;5035691;28;20045;-78
2022/05/01 02:33:06;;;;;;;14.73;8.65;;;7.80;99.90;;;;;;5035692;28;20067;-76
2022/05/01 02:35:32;;;;;;;17.20;8.13;;;7.80;99.90;;;;;;5036063;28;20448;-78
2022/05/01 02:37:59;;;;;;;13.30;9.07;;;7.80;99.90;;;;;;5036106;28;20041;-76
2022/05/01 02:40:25;;;;;;;15.27;9.52;;;7.80;99.90;;;;;;5035903;28;20045;-76
2022/05/01 02:42:50;;;;;;;12.13;8.32;;;7.80;99.90;;;;;;5035704;28;20045;-76
2022/05/01 02:45:16;;;;;;;18.05;8.85;;;7.80;99.90;;;;;;5035693;28;20114;-77
2022/05/01 02:47:41;;;;;;;16.50;9.55;;;7.80;99.90;;;;;;5035632;28;20049;-76
2022/05/01 02:50:08;;;;;;;15.70;8.65;;;7.80;99.90;;;;;;5035404;28;20499;-76
2022/05/01 02:52:33;;;;;;;15.98;10.55;;;7.80;99.90;;;;;;5019066;28;20051;-76
2022/05/01 02:54:59;;;;;;;16.10;9.70;;;7.80;99.90;;;;;;5035401;28;20032;-76
2022/05/01 02:57:24;;;;;;;15.98;8.90;;;7.80;99.90;;;;;;5035344;28;20087;-77
2022/05/01 02:59:50;;;;;;;18.52;9.57;;;7.80;99.90;;;;;;5035215;28;20420;-76
2022/05/01 03:02:15;;;;;;;16.45;9.40;;;7.80;99.90;;;;;;5035525;28;20037;-76
2022/05/01 03:04:41;;;;;;;18.00;9.65;;;7.80;99.90;;;;;;5043041;28;20068;-77
2022/05/01 03:07:07;;;;;;;17.25;10.27;;;7.80;99.90;;;;;;5047361;28;20045;-79
2022/05/01 03:09:34;;;;;;;16.67;10.15;;;7.90;99.90;;;;;;5023691;28;20044;-77
2022/05/01 03:11:59;;;;;;;16.50;9.68;;;7.80;99.90;;;;;;5035112;28;20041;-76
2022/05/01 03:14:25;;;;;;;17.23;10.13;;;7.80;99.90;;;;;;5034245;28;20091;-77
2022/05/01 03:16:50;;;;;;;19.65;9.05;;;7.80;99.90;;;;;;5035092;28;20080;-76
2022/05/01 03:22:13;;;;;;;18.33;9.90;;;7.80;99.90;;;;;;5034885;28;20175;-76
2022/05/01 03:24:43;;;;;;;22.95;10.50;;;7.80;99.90;;;;;;5018416;28;20484;-78
2022/05/01 03:27:09;;;;;;;20.95;11.10;;;7.80;99.90;;;;;;5034876;28;20091;-76
2022/05/01 03:29:36;;;;;;;17.17;10.48;;;7.80;99.90;;;;;;5034653;28;20052;-77
2022/05/01 03:32:07;;;;;;;19.55;10.15;;;7.80;99.90;;;;;;5034775;28;20120;-76
2022/05/01 03:34:33;;;;;;;15.70;9.90;;;7.80;99.90;;;;;;5034710;28;20044;-76
2022/05/01 03:36:58;;;;;;;16.98;10.25;;;7.80;99.90;;;;;;5034884;28;20064;-76
2022/05/01 03:39:24;;;;;;;19.92;9.88;;;7.80;99.90;;;;;;5034546;28;20041;-76
2022/05/01 03:41:49;;;;;;;16.35;9.57;;;7.80;99.90;;;;;;5034804;28;20492;-79
2022/05/01 03:44:15;;;;;;;17.00;10.00;;;7.80;99.90;;;;;;5034597;28;20527;-76
2022/05/01 03:46:40;;;;;;;17.90;10.13;;;7.70;99.90;;;;;;5034510;28;20416;-76
2022/05/01 03:49:06;;;;;;;18.58;9.35;;;7.70;99.90;;;;;;5034439;28;20076;-76
2022/05/01 03:51:33;;;;;;;20.48;10.75;;;7.80;99.90;;;;;;5034356;28;20041;-78
2022/05/01 03:54:03;;;;;;;18.83;11.23;;;7.70;99.90;;;;;;5034316;28;20037;-76
2022/05/01 03:56:29;;;;;;;15.70;9.98;;;7.80;99.90;;;;;;5034720;28;20071;-76
2022/05/01 03:58:56;;;;;;;18.30;10.70;;;7.70;99.90;;;;;;5034269;28;20052;-76
2022/05/01 04:01:22;;;;;;;17.25;8.88;;;7.70;99.90;;;;;;5034189;28;20167;-76
2022/05/01 04:03:47;;;;;;;16.98;9.60;;;7.70;99.90;;;;;;5034270;28;20739;-76
2022/05/01 04:06:13;;;;;;;21.35;11.95;;;7.70;99.90;;;;;;5034207;28;20040;-76
2022/05/01 04:08:39;;;;;;;18.42;10.65;;;7.70;99.90;;;;;;5034130;28;20164;-78
2022/05/01 04:11:05;;;;;;;21.00;10.40;;;7.70;99.90;;;;;;5034292;28;20048;-76
2022/05/01 04:13:30;;;;;;;19.30;10.40;;;7.70;99.90;;;;;;5034008;28;20396;-78
2022/05/01 04:15:56;;;;;;;16.75;9.68;;;7.70;99.90;;;;;;5034053;28;20052;-76
2022/05/01 04:18:21;;;;;;;20.95;9.80;;;7.60;99.90;;;;;;5033850;28;20041;-76
2022/05/01 04:20:47;;;;;;;21.20;11.05;;;7.60;99.90;;;;;;5033637;28;20474;-76
2022/05/01 04:23:13;;;;;;;15.48;9.02;;;7.60;99.90;;;;;;5034185;28;20039;-76
2022/05/01 04:25:40;;;;;;;15.95;9.90;;;7.60;99.90;;;;;;5033940;28;20037;-77
2022/05/01 04:28:10;;;;;;;18.40;9.82;;;7.60;99.90;;;;;;5033870;28;20052;-76
2022/05/01 04:30:37;;;;;;;18.92;10.35;;;7.70;99.90;;;;;;5033632;28;20047;-78
2022/05/01 04:33:12;;;;;;;20.60;10.95;;;7.60;99.90;;;;;;5034029;28;20037;-78
2022/05/01 04:35:46;;;;;;;22.17;10.70;;;7.60;99.90;;;;;;5033877;28;20132;-76
2022/05/01 04:38:17;;;;;;;17.65;10.32;;;7.70;99.90;;;;;;5033830;28;20044;-76
2022/05/01 04:40:46;;;;;;;19.17;10.75;;;7.60;99.90;;;;;;5033540;28;20041;-79
2022/05/01 04:43:13;;;;;;;16.95;10.32;;;7.60;99.90;;;;;;5033601;28;20116;-77
2022/05/01 04:45:41;;;;;;;22.52;11.80;;;7.70;99.90;;;;;;5017099;28;20111;-76
2022/05/01 04:48:07;;;;;;;23.10;11.00;;;7.60;99.90;;;;;;5017190;28;20045;-76
2022/05/01 04:50:33;;;;;;;20.42;9.98;;;7.60;99.90;;;;;;5033351;28;20041;-76
2022/05/01 04:53:02;;;;;;;22.80;10.43;;;7.50;99.90;;;;;;5033498;28;20049;-76
2022/05/01 04:55:31;;;;;;;22.42;11.05;;;7.60;99.90;;;;;;5033484;28;20033;-79
2022/05/01 04:57:57;;;;;;;18.42;9.85;;;7.60;99.90;;;;;;5033526;28;20041;-76
2022/05/01 05:00:23;;;;;;;19.50;10.30;;;7.60;99.90;;;;;;5051205;28;20512;-76
2022/05/01 05:02:51;;;;;;;24.92;13.40;;;7.60;99.90;;;;;;5033741;28;20041;-76
2022/05/01 05:05:19;;;;;;;19.95;10.30;;;7.60;99.90;;;;;;5033397;28;20051;-76
2022/05/01 05:07:45;;;;;;;20.70;11.63;;;7.60;99.90;;;;;;5033542;28;20045;-76
2022/05/01 05:10:11;;;;;;;20.25;11.05;;;7.60;99.90;;;;;;5033208;28;20045;-76
2022/05/01 05:12:39;;;;;;;19.48;11.55;;;7.70;99.90;;;;;;5033366;28;20116;-75
2022/05/01 05:15:09;;;;;;;20.02;11.02;;;7.60;99.90;;;;;;5033229;28;20041;-76
2022/05/01 05:17:36;;;;;;;19.60;10.90;;;7.70;99.90;;;;;;5033222;28;20060;-76
2022/05/01 05:20:04;;;;;;;21.65;11.27;;;7.70;99.90;;;;;;5016440;28;20029;-76
2022/05/01 05:22:30;;;;;;;17.73;10.30;;;7.70;99.90;;;;;;5033259;28;20037;-76
2022/05/01 05:24:55;;;;;;;20.23;11.32;;;7.80;99.90;;;;;;5033204;28;20033;-76
2022/05/01 05:27:25;;;;;;;23.33;11.38;;;7.80;99.90;;;;;;5033212;28;20048;-77
2022/05/01 05:29:54;;;;;;;17.02;10.13;;;7.80;99.90;;;;;;5034647;28;20140;-77
2022/05/01 05:32:20;;;;;;;19.90;11.18;;;7.80;99.90;;;;;;5037020;28;20041;-76
2022/05/01 05:34:46;;;;;;;21.75;11.82;;;7.90;99.90;;;;;;5036744;28;20054;-76
2022/05/01 05:37:12;;;;;;;16.73;10.30;;;7.90;99.90;;;;;;5037134;28;20048;-76
2022/05/01 05:39:38;;;;;;;18.08;10.15;;;7.90;99.90;;;;;;5036467;28;20044;-76
2022/05/01 05:42:04;;;;;;;16.52;11.30;;;7.90;99.90;;;;;;5020161;28;20120;-76
2022/05/01 05:44:29;;;;;;;16.20;10.65;;;7.90;99.90;;;;;;5020364;28;20090;-76
2022/05/01 05:46:55;;;;;;;20.05;11.50;;;8.00;99.90;;;;;;5036844;28;20044;-78
2022/05/01 05:49:20;;;;;;;19.30;11.50;;;8.10;99.90;;;;;;5036804;28;20056;-76
2022/05/01 05:51:46;;;;;;;21.13;12.18;;;8.10;99.90;;;;;;5036556;28;20041;-76
2022/05/01 05:54:12;;;;;;;19.85;9.95;;;8.10;99.90;;;;;;5036608;28;20041;-77
2022/05/01 05:56:37;;;;;;;19.95;10.20;;;8.20;99.90;;;;;;5036760;28;20033;-79
2022/05/01 05:59:03;;;;;;;19.60;10.55;;;8.20;99.90;;;;;;5036807;28;20048;-76
2022/05/01 06:01:29;;;;;;;18.40;11.07;;;8.30;99.90;;;;;;5036870;28;20131;-76
2022/05/01 06:03:54;;;;;;;20.90;10.30;;;8.30;99.90;;;;;;5036929;28;20084;-76
2022/05/01 06:06:20;;;;;;;17.73;10.73;;;8.30;99.90;;;;;;5036377;28;20055;-77
2022/05/01 06:08:46;;;;;;;18.23;10.88;;;8.40;99.90;;;;;;5054134;28;20059;-78
2022/05/01 06:11:11;;;;;;;19.83;11.15;;;8.50;99.90;;;;;;5036218;28;20073;-76
2022/05/01 06:13:37;;;;;;;18.27;10.70;;;8.50;99.90;;;;;;5042203;28;20439;-77
2022/05/01 06:16:03;;;;;;;17.58;10.35;;;8.60;99.90;;;;;;5051082;28;20048;-77
2022/05/01 06:18:29;;;;;;;18.30;10.45;;;8.70;99.90;;;;;;5043776;28;20065;-77
2022/05/01 06:20:55;;;;;;;20.73;11.10;;;8.70;99.90;;;;;;5035710;28;20045;-77
2022/05/01 06:23:21;;;;;;;19.52;11.52;;;8.70;99.90;;;;;;5036024;28;20040;-78
2022/05/01 06:25:47;;;;;;;16.55;11.05;;;8.80;99.90;;;;;;5035900;28;20052;-76
2022/05/01 06:28:14;;;;;;;18.30;10.98;;;8.80;99.90;;;;;;5035876;28;20037;-78
2022/05/01 06:30:43;;;;;;;18.70;10.68;;;8.90;99.90;;;;;;5035606;28;20056;-76
2022/05/01 06:33:10;;;;;;;18.70;10.07;;;8.90;99.90;;;;;;5035791;28;20549;-78
2022/05/01 06:35:36;;;;;;;17.75;10.27;;;8.90;99.90;;;;;;5035656;28;20037;-76
2022/05/01 06:38:02;;;;;;;18.65;10.80;;;9.00;99.90;;;;;;5035666;28;20075;-76
2022/05/01 06:40:27;;;;;;;18.75;11.65;;;9.00;99.90;;;;;;5035333;28;20449;-77
2022/05/01 06:42:54;;;;;;;18.48;11.77;;;9.10;99.90;;;;;;5035521;28;20048;-77
2022/05/01 06:45:20;;;;;;;22.55;13.35;;;9.20;99.90;;;;;;5035755;28;20415;-76
2022/05/01 06:47:45;;;;;;;18.77;10.98;;;9.20;99.90;;;;;;5035524;28;20041;-77
2022/05/01 06:50:11;;;;;;;17.15;10.95;;;9.30;99.90;;;;;;5035138;28;20045;-77
2022/05/01 06:52:37;;;;;;;18.23;11.25;;;9.50;99.90;;;;;;5036028;28;20049;-76
2022/05/01 06:55:04;;;;;;;21.38;11.15;;;9.60;99.90;;;;;;5035377;28;20064;-78
2022/05/01 06:57:29;;;;;;;18.83;10.75;;;9.70;99.90;;;;;;5035283;28;20415;-78
2022/05/01 06:59:56;;;;;;;20.08;11.60;;;9.80;99.90;;;;;;5035406;28;20116;-79
2022/05/01 07:02:21;;;;;;;16.15;11.18;;;9.80;99.90;;;;;;5035260;28;20045;-78
2022/05/01 07:04:47;;;;;;;17.42;10.68;;;9.80;99.90;;;;;;5035104;28;20041;-79
2022/05/01 07:07:13;;;;;;;16.05;9.93;;;9.90;99.90;;;;;;5053256;28;20064;-79
2022/05/01 07:09:39;;;;;;;16.52;10.40;;;9.90;99.90;;;;;;5034448;28;20067;-79
2022/05/01 07:12:06;;;;;;;19.55;10.25;;;10.00;99.90;;;;;;5034827;28;20037;-79
2022/05/01 07:14:32;;;;;;;20.25;11.55;;;10.10;99.90;;;;;;5018128;28;20080;-80
2022/05/01 07:16:57;;;;;;;16.33;10.23;;;10.20;99.90;;;;;;5034805;28;20530;-80
2022/05/01 07:19:23;;;;;;;22.50;12.90;;;10.20;99.90;;;;;;5034523;28;20063;-76
2022/05/01 07:21:48;;;;;;;18.20;9.48;;;10.30;99.90;;;;;;5034505;28;20402;-79
2022/05/01 07:24:14;;;;;;;16.50;9.68;;;10.30;99.90;;;;;;5018189;28;20051;-79
2022/05/01 07:26:40;;;;;;;17.40;9.75;;;10.40;99.90;;;;;;5034840;28;20059;-80
2022/05/01 07:29:05;;;;;;;18.25;10.73;;;10.50;99.90;;;;;;5034764;28;20048;-79
2022/05/01 07:31:31;;;;;;;18.05;10.68;;;10.60;99.90;;;;;;5034436;28;20055;-80
2022/05/01 07:33:57;;;;;;;19.15;10.57;;;10.70;99.90;;;;;;5034659;28;20056;-79
2022/05/01 07:36:23;;;;;;;19.08;9.98;;;10.90;99.90;;;;;;5034551;28;20107;-80
2022/05/01 07:38:50;;;;;;;16.30;9.55;;;11.00;99.90;;;;;;5034412;28;20068;-79
2022/05/01 07:41:19;;;;;;;14.75;9.68;;;11.30;99.90;;;;;;5018516;28;20041;-79
2022/05/01 07:43:46;;;;;;;15.77;10.85;;;11.50;99.90;;;;;;5018781;28;20044;-80
2022/05/01 07:46:12;;;;;;;16.30;9.80;;;11.80;99.90;;;;;;5018091;28;20086;-79
2022/05/01 07:48:37;;;;;;;14.68;9.57;;;12.00;99.90;;;;;;5035374;28;20076;-80
2022/05/01 07:51:03;;;;;;;16.60;8.75;;;12.20;99.90;;;;;;5034620;28;20527;-79
2022/05/01 07:53:29;;;;;;;16.42;9.02;;;12.40;99.90;;;;;;5017570;28;20048;-80
2022/05/01 07:55:56;;;;;;;14.52;8.63;;;12.40;99.90;;;;;;5034692;28;20470;-79
2022/05/01 07:58:22;;;;;;;16.90;8.45;;;12.30;99.90;;;;;;5034927;28;20488;-79
2022/05/01 08:00:48;;;;;;;13.95;8.50;;;12.30;99.90;;;;;;5035294;28;20116;-80
2022/05/01 08:05:58;;;;;;;13.88;8.55;;;12.10;99.90;;;;;;5053260;28;20088;-80
2022/05/01 08:08:24;;;;;;;11.55;7.65;;;12.30;99.90;;;;;;5018286;28;20033;-80
2022/05/01 08:10:50;;;;;;;10.95;7.20;;;12.40;99.90;;;;;;5016732;28;20048;-81
2022/05/01 08:13:16;;;;;;;11.85;7.47;;;12.50;99.90;;;;;;5039924;28;20458;-80
2022/05/01 08:15:41;;;;;;;13.35;7.10;;;12.70;99.90;;;;;;4999550;28;20049;-80
2022/05/01 08:21:07;;;;;;;9.52;6.15;;;13.20;99.90;;;;;;5017271;28;20094;-79
2022/05/01 08:23:34;;;;;;;9.40;6.65;;;13.20;99.90;;;;;;5017551;28;20484;-79
2022/05/01 08:26:06;;;;;;;12.57;6.05;;;13.10;99.90;;;;;;4999415;28;20056;-78
2022/05/01 08:28:36;;;;;;;9.82;6.00;;;13.10;99.90;;;;;;4999764;28;20132;-79
2022/05/01 08:31:03;;;;;;;10.00;5.93;;;13.30;99.90;;;;;;5018148;28;20075;-81
2022/05/01 08:33:28;;;;;;;11.02;5.90;;;13.40;99.90;;;;;;5017755;28;20040;-80
2022/05/01 08:35:54;;;;;;;11.70;5.60;;;13.50;99.90;;;;;;5000461;28;20071;-79
2022/05/01 08:38:20;;;;;;;8.43;5.60;;;13.60;99.90;;;;;;5016392;28;20094;-79
2022/05/01 08:40:50;;;;;;;11.05;6.57;;;13.70;99.90;;;;;;5016227;28;20113;-80
2022/05/01 08:43:18;;;;;;;10.43;6.05;;;13.90;99.90;;;;;;5037669;28;20045;-79
2022/05/01 08:46:06;;;;;;;7.18;4.93;;;14.10;99.90;;;;;;5005103;28;20046;-79
2022/05/01 08:49:00;;;;;;;6.18;4.95;;;14.20;99.90;;;;;;5020513;28;20041;-79
2022/05/01 08:51:29;;;;;;;6.90;5.32;;;14.40;99.90;;;;;;5015523;28;20497;-79
2022/05/01 08:53:58;;;;;;;8.77;6.28;;;14.40;99.90;;;;;;5017186;28;20053;-79
2022/05/01 08:56:24;;;;;;;8.75;5.72;;;14.50;99.90;;;;;;5019785;28;20130;-79
2022/05/01 08:58:50;;;;;;;8.45;5.20;;;14.80;99.90;;;;;;5019132;28;20056;-79
2022/05/01 09:01:17;;;;;;;7.65;6.05;;;14.90;99.90;;;;;;5017604;28;20045;-79
2022/05/01 09:03:44;;;;;;;8.52;5.72;;;14.80;99.90;;;;;;5017724;28;20045;-80
2022/05/01 09:06:11;;;;;;;9.20;6.20;;;14.90;99.90;;;;;;5023763;28;20396;-79
2022/05/01 09:08:40;;;;;;;9.98;6.45;;;15.10;99.90;;;;;;5023113;28;20081;-79
2022/05/01 09:13:56;;;;;;;7.43;6.00;;;15.20;99.90;;;;;;4998826;28;20056;-79
2022/05/01 09:16:22;;;;;;;8.63;6.00;;;15.20;99.90;;;;;;5017298;28;20042;-79
2022/05/01 09:18:47;;;;;;;9.30;5.22;;;15.30;99.90;;;;;;5018620;28;20041;-79
2022/05/01 09:21:13;;;;;;;10.60;5.82;;;15.50;99.90;;;;;;5017756;28;20064;-80
2022/05/01 09:23:41;;;;;;;7.82;5.00;;;15.60;99.90;;;;;;5018367;28;20467;-80
2022/05/01 09:26:09;;;;;;;8.10;5.18;;;15.70;99.90;;;;;;5017666;28;20057;-79
2022/05/01 09:28:46;;;;;;;11.95;6.15;;;15.80;99.90;;;;;;5018508;28;20092;-79
2022/05/01 09:31:12;;;;;;;12.30;5.60;;;16.10;99.90;;;;;;5018702;28;20116;-78
2022/05/01 09:33:37;;;;;;;9.43;4.57;;;16.40;99.90;;;;;;5001390;28;20599;-79
2022/05/01 09:36:03;;;;;;;8.10;4.60;;;16.60;99.90;;;;;;5003872;28;20095;-79
2022/05/01 09:38:29;;;;;;;9.15;4.88;;;16.70;99.90;;;;;;5033784;28;20045;-80
2022/05/01 09:40:55;;;;;;;10.90;4.57;;;16.80;99.90;;;;;;5026148;28;20048;-79
2022/05/01 09:43:41;;;;;;;7.05;5.03;;;17.00;95.50;;;;;;5022545;28;20064;-79
2022/05/01 09:46:25;;;;;;;6.07;4.28;;;16.80;84.40;;;;;;5016655;28;20552;-80
2022/05/01 09:48:57;;;;;;;6.18;4.70;;;16.70;94.90;;;;;;5016597;28;20519;-80
2022/05/01 09:51:23;;;;;;;7.47;4.28;;;16.80;96.80;;;;;;5016360;28;20056;-80
2022/05/01 09:53:49;;;;;;;6.97;4.20;;;17.10;99.90;;;;;;5016880;28;20049;-81
2022/05/01 09:56:15;;;;;;;7.70;4.70;;;17.50;99.90;;;;;;5017053;28;20127;-81
2022/05/01 09:58:40;;;;;;;6.55;4.32;;;17.80;99.60;;;;;;5017618;28;20046;-81
2022/05/01 10:01:11;;;;;;;6.95;3.85;;;18.00;99.10;;;;;;5017127;28;20041;-81
2022/05/01 10:03:47;;;;;;;7.37;4.30;;;17.90;97.00;;;;;;5017080;28;20068;-79
2022/05/01 10:06:15;;;;;;;5.82;4.47;;;18.00;83.20;;;;;;5016989;28;20821;-81
2022/05/01 10:08:42;;;;;;;5.72;4.55;;;17.90;95.80;;;;;;5034539;28;20065;-79
2022/05/01 10:11:08;;;;;;;6.82;4.47;;;17.70;93.90;;;;;;5034724;28;20041;-80
2022/05/01 10:13:35;;;;;;;7.20;4.47;;;17.00;95.70;;;;;;5016519;28;20045;-79
2022/05/01 10:16:06;;;;;;;8.18;4.78;;;16.20;95.30;;;;;;5015488;28;20053;-80
2022/05/01 10:18:31;;;;;;;8.77;4.50;;;15.70;95.90;;;;;;5016741;28;20033;-80
2022/05/01 10:20:57;;;;;;;7.88;5.15;;;15.50;96.40;;;;;;5017991;28;20500;-80
2022/05/01 10:23:23;;;;;;;5.45;3.85;;;15.60;96.10;;;;;;5034967;28;20439;-79
2022/05/01 10:26:06;;;;;;;5.85;4.07;;;16.00;96.00;;;;;;5016865;28;20038;-80
2022/05/01 10:28:50;;;;;;;9.55;4.88;;;16.30;95.50;;;;;;5017114;28;20042;-80
2022/05/01 10:35:04;;;;;;;8.20;4.45;;;16.80;93.20;;;;;;5022789;28;20152;-80
2022/05/01 10:37:48;;;;;;;;;;;17.00;80.90;;;;;;5022119;28;20745;-80
2022/05/01 10:40:14;;;;;;;6.07;4.22;;;17.20;78.40;;;;;;5022634;28;19917;-79
2022/05/01 10:42:46;;;;;;;6.22;4.20;;;17.20;93.40;;;;;;5021448;28;20045;-81
2022/05/01 10:45:23;;;;;;;7.82;4.63;;;17.00;85.20;;;;;;5006937;28;20051;-80
2022/05/01 10:47:55;;;;;;;5.13;4.07;;;16.60;76.40;;;;;;5024510;28;20053;-80
2022/05/01 10:50:22;;;;;;;6.40;4.37;;;16.00;75.80;;;;;;5008158;28;20053;-80
2022/05/01 10:53:08;;;;;;;7.78;3.70;;;15.80;90.70;;;;;;5023118;28;20072;-81
2022/05/01 10:56:19;;;;;;;5.70;4.07;;;15.70;89.30;;;;;;5044190;28;20103;-80
2022/05/01 10:58:45;;;;;;;7.68;3.80;;;15.60;76.10;;;;;;4995804;28;20053;-80
2022/05/01 11:01:10;;;;;;;5.30;3.92;;;15.50;90.40;;;;;;5021163;28;20052;-81
2022/05/01 11:03:50;;;;;;;7.80;4.00;;;15.50;90.00;;;;;;5025267;28;20049;-82
2022/05/01 11:06:18;;;;;;;6.25;3.97;;;15.40;90.30;;;;;;5023670;28;20037;-80
2022/05/01 11:08:46;;;;;;;6.43;4.70;;;15.30;90.20;;;;;;5020690;28;20049;-80
2022/05/01 11:11:12;;;;;;;6.03;3.90;;;15.20;90.50;;;;;;5001572;28;20049;-79
2022/05/01 11:13:40;;;;;;;5.20;3.88;;;15.00;92.60;;;;;;5015690;28;20050;-79
2022/05/01 11:16:07;;;;;;;6.18;4.30;;;14.90;94.00;;;;;;5015855;28;20053;-79
2022/05/01 11:18:54;;;;;;;5.90;3.63;;;14.80;93.30;;;;;;5016432;28;20037;-79
2022/05/01 11:21:19;;;;;;;7.10;3.92;;;14.80;93.40;;;;;;5015905;28;20037;-78
2022/05/01 11:23:57;;;;;;;6.35;3.53;;;14.70;95.20;;;;;;5015044;28;20052;-79
2022/05/01 11:26:23;;;;;;;8.75;3.72;;;14.70;94.60;;;;;;5016047;28;20052;-76
2022/05/01 11:28:54;;;;;;;4.82;3.85;;;14.60;94.50;;;;;;5015959;28;20045;-78
2022/05/01 11:31:37;;;;;;;7.53;3.92;;;14.50;93.60;;;;;;5014641;28;20045;-78
2022/05/01 11:34:19;;;;;;;5.95;3.67;;;14.50;92.70;;;;;;5000566;28;20041;-80
2022/05/01 11:37:05;;;;;;;7.07;3.90;;;14.40;92.30;;;;;;5014803;28;20048;-79
2022/05/01 11:39:46;;;;;;;5.82;3.72;;;14.40;91.40;;;;;;5014161;28;20052;-81
2022/05/01 11:42:25;;;;;;;8.98;3.83;;;14.40;93.90;;;;;;5014538;28;20045;-78
2022/05/01 11:44:54;;;;;;;5.43;3.55;;;14.50;94.40;;;;;;4998848;28;20053;-78
2022/05/01 11:47:22;;;;;;;8.77;5.97;;;14.50;95.00;;;;;;5015036;28;20053;-79
2022/05/01 11:49:47;;;;;;;5.50;3.72;;;14.50;94.40;;;;;;5016008;28;20049;-79
2022/05/01 11:52:14;;;;;;;5.97;3.72;;;14.50;94.50;;;;;;5016201;28;20053;-79
2022/05/01 11:54:44;;;;;;;6.45;3.97;;;14.60;94.80;;;;;;5016251;28;20073;-78
2022/05/01 12:02:39;;;;;;;5.28;3.40;;;14.70;92.60;;;;;;5015681;28;20099;-78
2022/05/01 12:05:05;;;;;;;6.18;3.92;;;14.90;93.70;;;;;;5016551;28;20443;-78
2022/05/01 12:07:31;;;;;;;6.22;4.07;;;15.20;92.40;;;;;;5016362;28;20410;-78
2022/05/01 12:09:57;;;;;;;6.00;3.40;;;15.50;92.20;;;;;;5015883;28;20106;-78
2022/05/01 12:12:30;;;;;;;6.93;3.67;;;15.70;91.60;;;;;;5013955;28;20049;-78
2022/05/01 12:14:58;;;;;;;5.25;3.72;;;15.70;87.00;;;;;;5013822;28;20400;-78
2022/05/01 12:17:24;;;;;;;7.82;3.65;;;15.70;89.10;;;;;;5014194;28;20053;-79
2022/05/01 12:19:51;;;;;;;5.10;3.50;;;15.70;88.80;;;;;;5013501;28;20064;-79
2022/05/01 12:22:19;;;;;;;4.38;3.50;;;15.70;90.10;;;;;;5013738;28;20042;-79
2022/05/01 12:24:46;;;;;;;4.45;3.70;;;15.70;92.00;;;;;;5014005;28;20045;-79
2022/05/01 12:27:13;;;;;;;5.00;3.55;;;15.70;90.40;;;;;;5014605;28;20053;-79
2022/05/01 12:29:47;;;;;;;6.32;3.65;;;15.70;90.50;;;;;;5013648;28;20169;-79
2022/05/01 12:32:16;;;;;;;5.60;3.83;;;15.60;87.50;;;;;;5031391;28;20038;-78
2022/05/01 12:34:44;;;;;;;6.20;4.10;;;15.50;85.00;;;;;;5013844;28;20409;-79
2022/05/01 12:37:18;;;;;;;7.10;3.75;;;15.40;83.90;;;;;;4997126;28;20045;-79
2022/05/01 12:39:56;;;;;;;4.97;3.33;;;15.30;76.70;;;;;;5030854;28;20045;-78
2022/05/01 12:45:07;;;;;;;7.80;3.55;;;14.90;87.30;;;;;;5013305;28;20133;-79
2022/05/01 12:47:34;;;;;;;5.28;3.58;;;14.90;86.50;;;;;;5013754;28;20064;-79
2022/05/01 12:50:00;;;;;;;4.53;3.67;;;14.90;85.40;;;;;;4997032;28;20084;-79
2022/05/01 12:52:40;;;;;;;4.88;3.42;;;14.90;84.70;;;;;;5013505;28;20107;-79
2022/05/01 12:55:06;;;;;;;5.07;3.20;;;15.00;85.20;;;;;;5013633;28;20103;-80
2022/05/01 12:57:36;;;;;;;6.53;3.60;;;15.10;87.40;;;;;;5014392;28;20508;-79
2022/05/01 13:00:05;;;;;;;5.93;3.63;;;15.30;85.60;;;;;;5013802;28;20455;-79
2022/05/01 13:02:31;;;;;;;5.35;3.97;;;15.40;83.00;;;;;;5013656;28;20051;-79
2022/05/01 13:04:58;;;;;;;5.78;3.75;;;15.40;82.80;;;;;;5013134;28;20053;-78
2022/05/01 13:07:36;;;;;;;5.10;3.70;;;15.50;88.80;;;;;;5013075;28;20049;-79
2022/05/01 13:10:17;;;;;;;9.57;3.80;;;15.70;80.70;;;;;;5012838;28;20156;-80
2022/05/01 13:12:55;;;;;;;6.50;3.53;;;15.90;80.00;;;;;;5030868;28;20041;-78
2022/05/01 13:15:36;;;;;;;7.78;3.35;;;16.00;85.40;;;;;;5013196;28;20041;-79
2022/05/01 13:18:02;;;;;;;3.80;3.42;;;16.30;80.20;;;;;;5013580;28;20054;-78